KDNV/DNV METAR and TAF weather

Enter ICAO airport designator
Station Type Date Time Source
KDNV METAR 2018/04/23 11:15 UTC NOAA

KDNV 231115Z AUTO 04007KT 10SM CLR 07/M01 A3008 RMK AO2 T00711011


Station Type Date Time Source
KDNV Decoded METAR 2018/04/23 11:15 UTC NOAA

Danville, Vermilion County Airport, IL, United States (KDNV) 40-11-58N 087-35-44W
Apr 23, 2018 - 07:15 AM EDT / 2018.04.23 1115 UTC
Wind: from the NE (040 degrees) at 8 MPH (7 KT):0
Visibility: 10 mile(s):0
Sky conditions: clear
Temperature: 44.8 F (7.1 C)
Dew Point: 30.0 F (-1.1 C)
Relative Humidity: 55%
Pressure (altimeter): 30.08 in. Hg (1018 hPa)
ob: KDNV 231115Z AUTO 04007KT 10SM CLR 07/M01 A3008 RMK AO2 T00711011
cycle: 11

Station Type Date Time Source
KDNV TAF UTC NOAA

Error!


Example: see airport list